createdAt,value
2022-09-12T00:01:20.132Z,16.32
2022-09-12T00:03:47.140Z,16.26
2022-09-12T00:06:22.885Z,16.23
2022-09-12T00:08:50.745Z,16.21
2022-09-12T00:11:17.857Z,16.16
2022-09-12T00:13:44.568Z,16.19
2022-09-12T00:16:22.334Z,16.27
2022-09-12T00:18:49.627Z,16.27
2022-09-12T00:21:17.902Z,16.35
2022-09-12T00:23:45.357Z,16.39
2022-09-12T00:26:12.663Z,16.35
2022-09-12T00:28:40.963Z,16.30
2022-09-12T00:31:11.763Z,16.23
2022-09-12T00:33:38.663Z,16.20
2022-09-12T00:36:11.754Z,16.21
2022-09-12T00:38:38.637Z,16.19
2022-09-12T00:41:06.142Z,16.18
2022-09-12T00:43:39.696Z,16.28
2022-09-12T00:46:26.693Z,16.12
2022-09-12T00:49:03.553Z,16.17
2022-09-12T00:51:32.241Z,16.14
2022-09-12T00:54:00.233Z,16.14
2022-09-12T00:56:27.718Z,16.19
2022-09-12T00:59:17.379Z,16.20
2022-09-12T01:01:45.210Z,16.18
2022-09-12T01:04:12.931Z,16.17
2022-09-12T01:06:42.665Z,16.20
2022-09-12T01:09:12.258Z,16.10
2022-09-12T01:11:39.964Z,16.11
2022-09-12T01:14:07.655Z,16.04
2022-09-12T01:16:38.015Z,16.01
2022-09-12T01:19:07.818Z,16.07
2022-09-12T01:21:54.463Z,16.03
2022-09-12T01:24:30.037Z,16.04
2022-09-12T01:27:08.777Z,15.92
2022-09-12T01:30:04.948Z,15.96
2022-09-12T01:32:44.195Z,15.96
2022-09-12T01:35:10.695Z,15.86
2022-09-12T01:38:16.631Z,15.87
2022-09-12T01:40:53.260Z,15.83
2022-09-12T01:43:26.784Z,15.87
2022-09-12T01:45:59.071Z,15.90
2022-09-12T01:48:35.892Z,15.89
2022-09-12T01:51:26.314Z,15.81
2022-09-12T01:53:58.776Z,15.67
2022-09-12T01:56:28.795Z,15.70
2022-09-12T01:59:15.419Z,15.67
2022-09-12T02:01:46.873Z,15.67
2022-09-12T02:04:23.334Z,15.73
2022-09-12T02:06:58.308Z,15.76
2022-09-12T02:09:29.080Z,15.70
2022-09-12T02:12:01.422Z,15.68
2022-09-12T02:14:38.306Z,15.56
2022-09-12T02:17:16.912Z,15.58
2022-09-12T02:19:50.664Z,15.63
2022-09-12T02:22:18.449Z,15.56
2022-09-12T02:24:47.705Z,15.60
2022-09-12T02:27:16.541Z,15.50
2022-09-12T02:29:44.855Z,15.55
2022-09-12T02:32:39.237Z,15.51
2022-09-12T02:35:13.952Z,15.48
2022-09-12T02:38:04.526Z,15.46
2022-09-12T02:40:31.325Z,15.45
2022-09-12T02:42:58.073Z,15.40
2022-09-12T02:45:24.776Z,15.42
2022-09-12T02:47:57.715Z,15.46
2022-09-12T02:50:24.431Z,15.49
2022-09-12T02:52:53.817Z,15.43
2022-09-12T02:55:20.481Z,15.43
2022-09-12T02:57:47.072Z,15.41
2022-09-12T03:00:14.405Z,15.43
2022-09-12T03:03:18.629Z,15.48
2022-09-12T03:06:14.913Z,15.46
2022-09-12T03:09:13.806Z,15.46
2022-09-12T03:12:00.499Z,15.49
2022-09-12T03:14:50.339Z,15.44
2022-09-12T03:17:32.387Z,15.50
2022-09-12T03:20:20.218Z,15.41
2022-09-12T03:22:53.896Z,15.48
2022-09-12T03:25:28.922Z,15.44
2022-09-12T03:28:01.719Z,15.36
2022-09-12T03:30:28.384Z,15.29
2022-09-12T03:32:55.506Z,15.31
2022-09-12T03:35:24.630Z,15.32
2022-09-12T03:37:52.266Z,15.30
2022-09-12T03:40:19.019Z,15.31
2022-09-12T03:42:45.633Z,15.37
2022-09-12T03:45:12.248Z,15.29
2022-09-12T03:47:38.937Z,15.38
2022-09-12T03:50:06.606Z,15.37
2022-09-12T03:52:33.603Z,15.34
2022-09-12T03:55:00.267Z,15.34
2022-09-12T03:57:26.881Z,15.24
2022-09-12T03:59:53.439Z,15.25
2022-09-12T04:02:20.089Z,15.20
2022-09-12T04:04:58.837Z,15.25
2022-09-12T04:07:25.549Z,15.17
2022-09-12T04:09:53.316Z,15.13
2022-09-12T04:12:20.461Z,15.12
2022-09-12T04:14:47.024Z,15.09
2022-09-12T04:17:14.242Z,15.00
2022-09-12T04:19:40.849Z,15.06
2022-09-12T04:22:07.405Z,15.11
2022-09-12T04:24:34.027Z,15.16
2022-09-12T04:27:03.739Z,15.17
2022-09-12T04:29:32.614Z,15.18
2022-09-12T04:31:59.167Z,15.18
2022-09-12T04:34:26.091Z,15.19
2022-09-12T04:36:52.733Z,15.20
2022-09-12T04:39:19.651Z,15.25
2022-09-12T04:41:46.357Z,15.21
2022-09-12T04:44:14.844Z,15.15
2022-09-12T04:46:44.936Z,15.17
2022-09-12T04:49:12.907Z,15.13
2022-09-12T04:51:41.408Z,15.07
2022-09-12T04:54:16.988Z,15.10
2022-09-12T04:56:59.111Z,15.11
2022-09-12T04:59:32.225Z,14.97
2022-09-12T05:02:05.049Z,14.97
2022-09-12T05:04:38.855Z,14.91
2022-09-12T05:07:09.950Z,14.90
2022-09-12T05:09:40.499Z,14.96
2022-09-12T05:12:10.230Z,14.97
2022-09-12T05:14:52.370Z,15.04
2022-09-12T05:17:27.024Z,15.08
2022-09-12T05:20:16.945Z,15.15
2022-09-12T05:22:46.606Z,15.12
2022-09-12T05:25:13.276Z,15.14
2022-09-12T05:27:45.461Z,15.22
2022-09-12T05:30:17.187Z,15.15
2022-09-12T05:32:46.804Z,15.17
2022-09-12T05:35:14.899Z,15.23
2022-09-12T05:37:52.795Z,15.26
2022-09-12T05:40:28.564Z,15.34
2022-09-12T05:43:10.781Z,15.42
2022-09-12T05:45:56.712Z,15.44
2022-09-12T05:48:29.337Z,15.53
2022-09-12T05:51:24.956Z,15.67
2022-09-12T05:53:59.824Z,15.69
2022-09-12T05:56:36.667Z,15.62
2022-09-12T05:59:05.960Z,15.68
2022-09-12T06:01:34.404Z,15.69
2022-09-12T06:04:09.981Z,15.76
2022-09-12T06:06:45.110Z,15.88
2022-09-12T06:09:18.620Z,15.86
2022-09-12T06:11:46.441Z,15.82
2022-09-12T06:14:14.779Z,15.88
2022-09-12T06:16:41.550Z,15.87
2022-09-12T06:19:31.300Z,15.76
2022-09-12T06:22:03.252Z,15.75
2022-09-12T06:24:35.661Z,15.87
2022-09-12T06:27:11.065Z,15.97
2022-09-12T06:29:46.250Z,16.03
2022-09-12T06:32:24.752Z,16.06
2022-09-12T06:34:54.516Z,16.23
2022-09-12T06:41:15.789Z,16.33
2022-09-12T06:43:56.833Z,16.43
2022-09-12T06:46:33.525Z,16.43
2022-09-12T06:49:27.748Z,16.47
2022-09-12T06:52:03.033Z,16.40
2022-09-12T06:54:36.337Z,16.43
2022-09-12T06:57:02.945Z,16.47
2022-09-12T06:59:32.086Z,16.56
2022-09-12T07:01:58.762Z,16.62
2022-09-12T07:04:25.382Z,16.70
2022-09-12T07:06:52.008Z,16.80
2022-09-12T07:09:18.599Z,16.72
2022-09-12T07:11:45.945Z,16.77
2022-09-12T07:14:20.139Z,16.81
2022-09-12T07:16:46.745Z,16.85
2022-09-12T07:19:14.184Z,16.92
2022-09-12T07:21:41.692Z,16.94
2022-09-12T07:24:11.809Z,16.93
2022-09-12T07:26:40.190Z,17.02
2022-09-12T07:29:35.465Z,17.11
2022-09-12T07:31:53.822Z,17.18
2022-09-12T07:34:20.381Z,17.22
2022-09-12T07:36:46.935Z,17.23
2022-09-12T07:39:13.577Z,17.21
2022-09-12T07:41:40.301Z,17.18
2022-09-12T07:44:07.315Z,17.17
2022-09-12T07:46:33.900Z,17.20
2022-09-12T07:49:01.618Z,17.26
2022-09-12T07:51:29.995Z,17.30
2022-09-12T07:53:56.678Z,17.25
2022-09-12T07:56:29.330Z,17.28
2022-09-12T07:58:57.023Z,17.30
2022-09-12T08:01:24.059Z,17.33
2022-09-12T08:03:58.018Z,17.35
2022-09-12T08:06:26.078Z,17.38
2022-09-12T08:08:54.854Z,17.42
2022-09-12T08:11:22.934Z,17.43
2022-09-12T08:13:54.850Z,17.44
2022-09-12T08:16:23.842Z,17.50
2022-09-12T08:18:50.521Z,17.57
2022-09-12T08:21:31.484Z,17.64
2022-09-12T08:24:00.912Z,17.63
2022-09-12T08:26:27.661Z,17.62
2022-09-12T08:28:54.969Z,17.68
2022-09-12T08:31:25.501Z,17.74
2022-09-12T08:33:52.207Z,17.78
2022-09-12T08:36:20.489Z,17.84
2022-09-12T08:38:49.116Z,17.94
2022-09-12T08:41:21.030Z,17.93
2022-09-12T08:44:11.084Z,17.99
2022-09-12T08:47:07.101Z,18.05
2022-09-12T08:49:59.761Z,18.13
2022-09-12T08:56:31.890Z,18.28
2022-09-12T09:02:50.358Z,18.37
2022-09-12T09:05:35.328Z,18.45
2022-09-12T09:08:15.656Z,18.45
2022-09-12T09:11:13.117Z,18.55
2022-09-12T09:14:24.672Z,18.60
2022-09-12T09:16:54.385Z,18.68
2022-09-12T09:19:41.100Z,18.75
2022-09-12T09:22:17.177Z,18.84
2022-09-12T09:24:51.244Z,18.86
2022-09-12T09:27:47.156Z,18.86
2022-09-12T09:30:21.611Z,18.92
2022-09-12T09:33:42.610Z,18.98
2022-09-12T09:47:12.393Z,19.44
2022-09-12T09:49:39.188Z,19.58
2022-09-12T09:52:08.755Z,19.70
2022-09-12T09:54:39.858Z,19.72
2022-09-12T09:57:35.265Z,19.91
2022-09-12T10:00:27.442Z,20.04
2022-09-12T10:03:29.022Z,20.16
2022-09-12T10:06:00.386Z,20.34
2022-09-12T10:08:29.715Z,20.47
2022-09-12T10:11:09.657Z,20.65
2022-09-12T10:13:54.687Z,20.98
2022-09-12T10:16:22.689Z,21.29
2022-09-12T10:18:53.726Z,21.54
2022-09-12T10:21:34.280Z,21.79
2022-09-12T10:24:19.668Z,21.91
2022-09-12T10:26:56.540Z,22.15
2022-09-12T10:29:32.472Z,22.18
2022-09-12T10:32:03.379Z,22.26
2022-09-12T10:34:33.743Z,22.30
2022-09-12T10:37:09.116Z,22.52
2022-09-12T10:39:38.584Z,22.83
2022-09-12T10:42:05.821Z,22.93
2022-09-12T10:44:34.493Z,23.18
2022-09-12T10:47:22.805Z,23.44
2022-09-12T10:49:51.148Z,23.57
2022-09-12T10:52:23.499Z,23.51
2022-09-12T10:54:51.521Z,23.65
2022-09-12T10:57:41.361Z,23.84
2022-09-12T11:00:17.681Z,23.84
2022-09-12T11:02:49.119Z,23.86
2022-09-12T11:05:32.243Z,23.99
2022-09-12T11:08:14.773Z,24.07
2022-09-12T11:11:06.522Z,24.07
2022-09-12T11:14:01.183Z,24.11
2022-09-12T11:16:43.129Z,24.32
2022-09-12T11:19:44.317Z,24.31
2022-09-12T11:22:29.841Z,24.16
2022-09-12T11:25:20.564Z,24.17
2022-09-12T11:28:03.729Z,24.24
2022-09-12T11:30:37.648Z,24.37
2022-09-12T11:33:09.399Z,24.24
2022-09-12T11:35:42.409Z,24.49
2022-09-12T11:38:33.181Z,24.51
2022-09-12T11:41:06.652Z,24.53
2022-09-12T11:43:48.992Z,24.64
2022-09-12T11:46:21.647Z,24.56
2022-09-12T11:48:51.233Z,24.43
2022-09-12T11:51:26.138Z,24.42
2022-09-12T11:54:31.807Z,24.51
2022-09-12T11:57:08.161Z,24.43
2022-09-12T11:59:46.881Z,24.33
2022-09-12T12:02:20.333Z,24.46
2022-09-12T12:05:02.265Z,24.48
2022-09-12T12:07:35.360Z,24.34
2022-09-12T12:10:02.233Z,24.48
2022-09-12T12:12:30.444Z,24.70
2022-09-12T12:14:58.049Z,24.85
2022-09-12T12:17:25.602Z,24.89
2022-09-12T12:20:05.799Z,24.99
2022-09-12T12:22:34.410Z,24.94
2022-09-12T12:25:03.902Z,24.83
2022-09-12T12:27:49.387Z,24.79
2022-09-12T12:30:31.275Z,24.96
2022-09-12T12:33:16.182Z,24.91
2022-09-12T12:35:46.850Z,24.83
2022-09-12T12:38:45.977Z,24.73
2022-09-12T12:41:18.727Z,24.80
2022-09-12T12:43:53.188Z,24.79
2022-09-12T12:46:22.722Z,24.70
2022-09-12T12:48:53.212Z,24.79
2022-09-12T12:51:33.532Z,24.92
2022-09-12T12:54:09.803Z,25.00
2022-09-12T12:56:41.463Z,25.05
2022-09-12T12:59:20.826Z,25.09
2022-09-12T13:01:55.360Z,25.19
2022-09-12T13:04:23.748Z,25.30
2022-09-12T13:07:42.434Z,25.27
2022-09-12T13:10:23.740Z,25.22
2022-09-12T13:12:50.931Z,25.11
2022-09-12T13:15:35.921Z,25.05
2022-09-12T13:18:14.985Z,25.16
2022-09-12T13:20:48.508Z,25.20
2022-09-12T13:23:26.834Z,25.17
2022-09-12T13:25:58.213Z,25.14
2022-09-12T13:28:26.503Z,25.03
2022-09-12T13:31:01.058Z,25.03
2022-09-12T13:33:46.481Z,25.07
2022-09-12T13:36:13.004Z,24.96
2022-09-12T13:39:02.284Z,24.97
2022-09-12T13:41:56.960Z,24.96
2022-09-12T13:44:24.282Z,25.03
2022-09-12T13:46:51.187Z,25.10
2022-09-12T13:49:20.711Z,25.12
2022-09-12T13:51:54.964Z,25.19
2022-09-12T13:54:24.583Z,25.21
2022-09-12T13:56:51.359Z,25.31
2022-09-12T13:59:17.951Z,25.38
2022-09-12T14:01:48.747Z,25.37
2022-09-12T14:04:40.139Z,25.48
2022-09-12T14:07:20.385Z,25.56
2022-09-12T14:09:54.994Z,25.33
2022-09-12T14:12:51.983Z,25.32
2022-09-12T14:15:23.600Z,25.44
2022-09-12T14:17:52.799Z,25.52
2022-09-12T14:20:20.938Z,25.54
2022-09-12T14:22:51.035Z,25.70
2022-09-12T14:25:22.355Z,25.78
2022-09-12T14:27:52.689Z,25.88
2022-09-12T14:30:28.384Z,25.83
2022-09-12T14:33:05.710Z,25.71
2022-09-12T14:35:33.407Z,25.76
2022-09-12T14:38:13.945Z,25.71
2022-09-12T14:40:51.086Z,25.69
2022-09-12T14:43:28.966Z,25.70
2022-09-12T14:45:59.911Z,25.62
2022-09-12T14:48:29.360Z,25.49
2022-09-12T14:50:56.136Z,25.44
2022-09-12T14:53:35.606Z,25.40
2022-09-12T14:56:05.202Z,25.47
2022-09-12T14:58:31.835Z,25.50
2022-09-12T15:01:08.069Z,25.48
2022-09-12T15:03:52.080Z,25.44
2022-09-12T15:06:31.787Z,25.55
2022-09-12T15:09:00.797Z,25.60
2022-09-12T15:11:27.592Z,25.46
2022-09-12T15:13:54.281Z,25.37
2022-09-12T15:16:21.062Z,25.25
2022-09-12T15:18:47.659Z,25.27
2022-09-12T15:21:18.122Z,25.42
2022-09-12T15:23:47.158Z,25.53
2022-09-12T15:26:22.616Z,25.53
2022-09-12T15:28:50.330Z,25.39
2022-09-12T15:31:28.314Z,25.35
2022-09-12T15:33:55.837Z,25.39
2022-09-12T15:36:23.638Z,25.52
2022-09-12T15:38:50.979Z,25.59
2022-09-12T15:41:23.768Z,25.57
2022-09-12T15:43:50.673Z,25.60
2022-09-12T15:46:18.566Z,25.69
2022-09-12T15:48:45.704Z,25.67
2022-09-12T15:51:17.525Z,25.46
2022-09-12T15:53:44.734Z,25.25
2022-09-12T15:56:12.055Z,25.12
2022-09-12T15:58:49.717Z,24.99
2022-09-12T16:01:24.297Z,25.00
2022-09-12T16:03:51.011Z,24.98
2022-09-12T16:06:17.685Z,24.95
2022-09-12T16:08:44.314Z,24.94
2022-09-12T16:11:20.618Z,24.90
2022-09-12T16:13:47.366Z,24.90
2022-09-12T16:16:13.982Z,24.99
2022-09-12T16:18:40.912Z,25.08
2022-09-12T16:21:12.662Z,25.15
2022-09-12T16:23:45.664Z,25.18
2022-09-12T16:26:12.519Z,25.18
2022-09-12T16:28:39.377Z,25.13
2022-09-12T16:31:07.924Z,25.14
2022-09-12T16:33:35.191Z,25.20
2022-09-12T16:36:06.559Z,25.21
2022-09-12T16:38:33.920Z,25.20
2022-09-12T16:41:05.229Z,25.10
2022-09-12T16:43:32.900Z,25.03
2022-09-12T16:46:22.876Z,24.96
2022-09-12T16:48:55.139Z,25.06
2022-09-12T16:51:31.354Z,25.12
2022-09-12T16:53:58.222Z,25.22
2022-09-12T16:56:25.605Z,25.35
2022-09-12T16:58:53.192Z,25.28
2022-09-12T17:01:22.479Z,25.15
2022-09-12T17:03:53.617Z,25.04
2022-09-12T17:06:20.335Z,24.90
2022-09-12T17:08:52.000Z,24.78
2022-09-12T17:11:24.023Z,24.67
2022-09-12T17:14:04.503Z,24.54
2022-09-12T17:16:33.102Z,24.46
2022-09-12T17:18:59.728Z,24.38
2022-09-12T17:21:26.322Z,24.30
2022-09-12T17:23:52.947Z,24.21
2022-09-12T17:26:20.864Z,24.13
2022-09-12T17:28:47.826Z,24.06
2022-09-12T17:31:15.544Z,24.03
2022-09-12T17:33:42.405Z,23.94
2022-09-12T17:36:13.624Z,23.88
2022-09-12T17:38:40.194Z,23.80
2022-09-12T17:41:16.155Z,23.70
2022-09-12T17:43:43.495Z,23.66
2022-09-12T17:46:10.272Z,23.58
2022-09-12T17:48:37.364Z,23.54
2022-09-12T17:51:11.940Z,23.45
2022-09-12T17:53:38.603Z,23.38
2022-09-12T17:56:06.339Z,23.35
2022-09-12T17:58:33.619Z,23.26
2022-09-12T18:01:20.915Z,23.23
2022-09-12T18:03:48.194Z,23.15
2022-09-12T18:06:15.320Z,23.05
2022-09-12T18:08:42.167Z,23.03
2022-09-12T18:11:09.064Z,22.98
2022-09-12T18:13:38.173Z,22.93
2022-09-12T18:16:07.680Z,22.90
2022-09-12T18:18:34.868Z,22.86
2022-09-12T18:21:02.475Z,22.81
2022-09-12T18:23:29.465Z,22.77
2022-09-12T18:26:07.444Z,22.70
2022-09-12T18:28:36.247Z,22.71
2022-09-12T18:31:03.107Z,22.59
2022-09-12T18:33:29.700Z,22.56
2022-09-12T18:35:56.802Z,22.58
2022-09-12T18:38:23.391Z,22.53
2022-09-12T18:40:50.028Z,22.50
2022-09-12T18:43:16.703Z,22.50
2022-09-12T18:45:43.304Z,22.42
2022-09-12T18:48:10.112Z,22.37
2022-09-12T18:50:36.752Z,22.38
2022-09-12T18:53:03.729Z,22.30
2022-09-12T18:55:32.190Z,22.30
2022-09-12T18:57:58.880Z,22.23
2022-09-12T19:00:25.632Z,22.21
2022-09-12T19:02:52.372Z,22.19
2022-09-12T19:05:19.032Z,22.18
2022-09-12T19:07:45.659Z,22.16
2022-09-12T19:10:12.250Z,22.10
2022-09-12T19:12:38.837Z,22.04
2022-09-12T19:15:06.927Z,22.04
2022-09-12T19:17:33.555Z,22.05
2022-09-12T19:20:00.229Z,22.01
2022-09-12T19:22:26.918Z,21.96
2022-09-12T19:24:53.715Z,21.93
2022-09-12T19:27:20.360Z,21.91
2022-09-12T19:29:46.953Z,21.93
2022-09-12T19:32:13.544Z,21.90
2022-09-12T19:34:40.236Z,21.86
2022-09-12T19:37:06.863Z,21.86
2022-09-12T19:39:33.748Z,21.85
2022-09-12T19:42:00.341Z,21.86
2022-09-12T19:44:27.728Z,21.80
2022-09-12T19:46:54.379Z,21.77
2022-09-12T19:49:21.002Z,21.76
2022-09-12T19:51:47.685Z,21.80
2022-09-12T19:54:14.260Z,21.75
2022-09-12T19:56:40.969Z,21.77
2022-09-12T19:59:08.794Z,21.74
2022-09-12T20:01:37.230Z,21.73
2022-09-12T20:04:04.745Z,21.66
2022-09-12T20:06:31.387Z,21.62
2022-09-12T20:08:58.154Z,21.55
2022-09-12T20:11:25.899Z,21.55
2022-09-12T20:13:55.667Z,21.51
2022-09-12T20:16:25.723Z,21.45
2022-09-12T20:18:57.495Z,21.51
2022-09-12T20:21:25.831Z,21.51
2022-09-12T20:23:52.759Z,21.48
2022-09-12T20:26:20.521Z,21.48
2022-09-12T20:28:47.428Z,21.52
2022-09-12T20:31:15.546Z,21.47
2022-09-12T20:33:49.822Z,21.44
2022-09-12T20:36:19.597Z,21.50
2022-09-12T20:38:50.984Z,21.47
2022-09-12T20:41:19.022Z,21.51
2022-09-12T20:43:52.349Z,21.52
2022-09-12T20:46:21.875Z,21.39
2022-09-12T20:48:50.477Z,21.21
2022-09-12T20:51:21.024Z,21.25
2022-09-12T20:53:48.351Z,21.24
2022-09-12T20:56:15.231Z,21.27
2022-09-12T20:58:44.502Z,21.22
2022-09-12T21:01:12.104Z,21.19
2022-09-12T21:03:39.672Z,21.10
2022-09-12T21:06:07.623Z,21.11
2022-09-12T21:08:34.353Z,21.11
2022-09-12T21:11:01.811Z,21.11
2022-09-12T21:13:28.811Z,21.08
2022-09-12T21:16:00.101Z,20.90
2022-09-12T21:18:26.977Z,20.87
2022-09-12T21:20:55.047Z,20.91
2022-09-12T21:23:22.484Z,20.88
2022-09-12T21:25:52.923Z,20.85
2022-09-12T21:28:19.971Z,20.93
2022-09-12T21:30:50.756Z,20.87
2022-09-12T21:33:19.215Z,20.89
2022-09-12T21:35:47.086Z,20.95
2022-09-12T21:38:15.175Z,20.91
2022-09-12T21:40:41.972Z,20.85
2022-09-12T21:43:12.583Z,20.86
2022-09-12T21:45:40.056Z,20.80
2022-09-12T21:48:06.652Z,20.78
2022-09-12T21:50:33.261Z,20.77
2022-09-12T21:52:59.979Z,20.81
2022-09-12T21:55:27.381Z,20.85
2022-09-12T21:57:57.089Z,20.79
2022-09-12T22:00:24.049Z,20.70
2022-09-12T22:02:50.660Z,20.60
2022-09-12T22:05:17.611Z,20.58
2022-09-12T22:07:44.740Z,20.61
2022-09-12T22:10:11.450Z,20.60
2022-09-12T22:12:40.723Z,20.62
2022-09-12T22:15:36.318Z,20.60
2022-09-12T22:17:56.609Z,20.57
2022-09-12T22:20:23.220Z,20.52
2022-09-12T22:23:08.484Z,20.55
2022-09-12T22:25:35.202Z,20.56
2022-09-12T22:28:02.018Z,20.58
2022-09-12T22:30:28.744Z,20.54
2022-09-12T22:32:55.319Z,20.49
2022-09-12T22:35:21.945Z,20.49
2022-09-12T22:37:48.573Z,20.48
2022-09-12T22:40:15.894Z,20.43
2022-09-12T22:42:42.527Z,20.47
2022-09-12T22:45:09.648Z,20.38
2022-09-12T22:47:36.251Z,20.37
2022-09-12T22:50:03.118Z,20.31
2022-09-12T22:52:29.685Z,20.29
2022-09-12T22:54:56.257Z,20.29
2022-09-12T22:57:23.064Z,20.31
2022-09-12T22:59:50.300Z,20.29
2022-09-12T23:02:16.917Z,20.29
2022-09-12T23:04:43.960Z,20.32
2022-09-12T23:07:10.808Z,20.32
2022-09-12T23:09:37.394Z,20.31
2022-09-12T23:12:04.519Z,20.26
2022-09-12T23:14:31.155Z,20.28
2022-09-12T23:16:57.710Z,20.26
2022-09-12T23:19:24.332Z,20.33
2022-09-12T23:21:51.002Z,20.20
2022-09-12T23:24:17.968Z,20.24
2022-09-12T23:26:46.544Z,20.27
2022-09-12T23:29:13.134Z,20.31
2022-09-12T23:31:39.725Z,20.24
2022-09-12T23:34:06.377Z,20.31
2022-09-12T23:36:33.812Z,20.22
2022-09-12T23:39:00.386Z,20.25
2022-09-12T23:41:27.089Z,20.22
2022-09-12T23:43:53.823Z,20.18
2022-09-12T23:46:24.237Z,20.18
2022-09-12T23:48:53.278Z,20.18
2022-09-12T23:51:21.806Z,20.16
2022-09-12T23:53:51.260Z,20.11
2022-09-12T23:56:17.996Z,20.16
2022-09-12T23:58:44.592Z,20.19
